sensor_id;sensor_type;location;lat;lon;timestamp;P1;durP1;ratioP1;P2;durP2;ratioP2
32639;SDS011;19049;52.524;11.468;2023-04-12T00:01:15;0.57;;;0.30;;
32639;SDS011;19049;52.524;11.468;2023-04-12T00:03:40;0.60;;;0.50;;
32639;SDS011;19049;52.524;11.468;2023-04-12T00:06:06;0.73;;;0.40;;
32639;SDS011;19049;52.524;11.468;2023-04-12T00:08:32;0.30;;;0.30;;
32639;SDS011;19049;52.524;11.468;2023-04-12T00:10:59;0.90;;;0.47;;
32639;SDS011;19049;52.524;11.468;2023-04-12T00:13:26;0.43;;;0.30;;
32639;SDS011;19049;52.524;11.468;2023-04-12T00:15:52;0.50;;;0.30;;
32639;SDS011;19049;52.524;11.468;2023-04-12T00:18:17;0.60;;;0.40;;
32639;SDS011;19049;52.524;11.468;2023-04-12T00:20:43;0.30;;;0.30;;
32639;SDS011;19049;52.524;11.468;2023-04-12T00:23:09;1.80;;;0.57;;
32639;SDS011;19049;52.524;11.468;2023-04-12T00:25:36;0.53;;;0.33;;
32639;SDS011;19049;52.524;11.468;2023-04-12T00:28:03;1.20;;;0.50;;
32639;SDS011;19049;52.524;11.468;2023-04-12T00:30:29;0.77;;;0.40;;
32639;SDS011;19049;52.524;11.468;2023-04-12T00:32:54;0.43;;;0.40;;
32639;SDS011;19049;52.524;11.468;2023-04-12T00:35:20;2.13;;;0.40;;
32639;SDS011;19049;52.524;11.468;2023-04-12T00:37:46;1.37;;;0.43;;
32639;SDS011;19049;52.524;11.468;2023-04-12T00:40:12;0.40;;;0.40;;
32639;SDS011;19049;52.524;11.468;2023-04-12T00:42:37;0.77;;;0.60;;
32639;SDS011;19049;52.524;11.468;2023-04-12T00:45:03;1.70;;;0.43;;
32639;SDS011;19049;52.524;11.468;2023-04-12T00:47:30;2.87;;;0.70;;
32639;SDS011;19049;52.524;11.468;2023-04-12T00:49:59;0.60;;;0.50;;
32639;SDS011;19049;52.524;11.468;2023-04-12T00:52:26;0.50;;;0.30;;
32639;SDS011;19049;52.524;11.468;2023-04-12T00:54:53;0.83;;;0.37;;
32639;SDS011;19049;52.524;11.468;2023-04-12T00:57:19;1.27;;;0.43;;
32639;SDS011;19049;52.524;11.468;2023-04-12T00:59:45;0.90;;;0.50;;
32639;SDS011;19049;52.524;11.468;2023-04-12T01:02:11;0.67;;;0.43;;
32639;SDS011;19049;52.524;11.468;2023-04-12T01:04:36;0.83;;;0.60;;
32639;SDS011;19049;52.524;11.468;2023-04-12T01:07:13;1.00;;;0.50;;
32639;SDS011;19049;52.524;11.468;2023-04-12T01:15:32;0.80;;;0.77;;
32639;SDS011;19049;52.524;11.468;2023-04-12T01:18:03;2.00;;;0.90;;
32639;SDS011;19049;52.524;11.468;2023-04-12T01:20:39;1.87;;;0.60;;
32639;SDS011;19049;52.524;11.468;2023-04-12T01:28:58;1.47;;;1.00;;
32639;SDS011;19049;52.524;11.468;2023-04-12T01:31:27;2.97;;;0.80;;
32639;SDS011;19049;52.524;11.468;2023-04-12T01:33:55;0.93;;;0.70;;
32639;SDS011;19049;52.524;11.468;2023-04-12T01:36:22;2.00;;;0.90;;
32639;SDS011;19049;52.524;11.468;2023-04-12T01:38:51;1.83;;;0.73;;
32639;SDS011;19049;52.524;11.468;2023-04-12T01:41:18;2.23;;;0.80;;
32639;SDS011;19049;52.524;11.468;2023-04-12T01:43:44;1.30;;;0.67;;
32639;SDS011;19049;52.524;11.468;2023-04-12T01:46:11;1.80;;;0.87;;
32639;SDS011;19049;52.524;11.468;2023-04-12T01:48:41;2.67;;;0.77;;
32639;SDS011;19049;52.524;11.468;2023-04-12T01:54:12;0.67;;;0.50;;
32639;SDS011;19049;52.524;11.468;2023-04-12T01:56:42;2.10;;;1.13;;
32639;SDS011;19049;52.524;11.468;2023-04-12T01:59:11;1.70;;;0.93;;
32639;SDS011;19049;52.524;11.468;2023-04-12T02:01:40;0.90;;;0.70;;
32639;SDS011;19049;52.524;11.468;2023-04-12T02:04:07;2.17;;;0.97;;
32639;SDS011;19049;52.524;11.468;2023-04-12T02:06:33;1.47;;;0.70;;
32639;SDS011;19049;52.524;11.468;2023-04-12T02:09:00;1.10;;;0.70;;
32639;SDS011;19049;52.524;11.468;2023-04-12T02:11:30;0.97;;;0.60;;
32639;SDS011;19049;52.524;11.468;2023-04-12T02:13:55;0.67;;;0.67;;
32639;SDS011;19049;52.524;11.468;2023-04-12T02:16:21;1.20;;;0.90;;
32639;SDS011;19049;52.524;11.468;2023-04-12T02:18:50;1.83;;;0.70;;
32639;SDS011;19049;52.524;11.468;2023-04-12T02:21:16;2.93;;;0.80;;
32639;SDS011;19049;52.524;11.468;2023-04-12T02:23:42;1.67;;;1.00;;
32639;SDS011;19049;52.524;11.468;2023-04-12T02:26:08;1.03;;;0.90;;
32639;SDS011;19049;52.524;11.468;2023-04-12T02:28:35;1.90;;;1.10;;
32639;SDS011;19049;52.524;11.468;2023-04-12T02:31:02;1.33;;;0.77;;
32639;SDS011;19049;52.524;11.468;2023-04-12T02:33:29;1.47;;;0.90;;
32639;SDS011;19049;52.524;11.468;2023-04-12T02:35:55;1.60;;;0.93;;
32639;SDS011;19049;52.524;11.468;2023-04-12T02:38:26;1.90;;;0.87;;
32639;SDS011;19049;52.524;11.468;2023-04-12T02:40:52;1.30;;;0.80;;
32639;SDS011;19049;52.524;11.468;2023-04-12T02:43:18;2.63;;;1.10;;
32639;SDS011;19049;52.524;11.468;2023-04-12T02:45:45;1.50;;;1.30;;
32639;SDS011;19049;52.524;11.468;2023-04-12T02:48:11;4.20;;;1.30;;
32639;SDS011;19049;52.524;11.468;2023-04-12T02:50:37;2.37;;;1.00;;
32639;SDS011;19049;52.524;11.468;2023-04-12T02:53:03;3.13;;;1.17;;
32639;SDS011;19049;52.524;11.468;2023-04-12T02:55:28;2.63;;;1.37;;
32639;SDS011;19049;52.524;11.468;2023-04-12T02:57:54;2.47;;;1.33;;
32639;SDS011;19049;52.524;11.468;2023-04-12T03:00:21;2.17;;;1.43;;
32639;SDS011;19049;52.524;11.468;2023-04-12T03:02:47;4.00;;;1.43;;
32639;SDS011;19049;52.524;11.468;2023-04-12T03:05:15;3.17;;;1.50;;
32639;SDS011;19049;52.524;11.468;2023-04-12T03:07:41;1.93;;;1.10;;
32639;SDS011;19049;52.524;11.468;2023-04-12T03:10:08;2.57;;;1.10;;
32639;SDS011;19049;52.524;11.468;2023-04-12T03:12:35;2.87;;;1.37;;
32639;SDS011;19049;52.524;11.468;2023-04-12T03:15:01;2.53;;;1.37;;
32639;SDS011;19049;52.524;11.468;2023-04-12T03:17:27;2.47;;;1.17;;
32639;SDS011;19049;52.524;11.468;2023-04-12T03:19:52;2.77;;;1.10;;
32639;SDS011;19049;52.524;11.468;2023-04-12T03:22:18;2.23;;;1.43;;
32639;SDS011;19049;52.524;11.468;2023-04-12T03:24:44;2.30;;;1.50;;
32639;SDS011;19049;52.524;11.468;2023-04-12T03:27:10;4.13;;;1.57;;
32639;SDS011;19049;52.524;11.468;2023-04-12T03:29:36;1.77;;;1.23;;
32639;SDS011;19049;52.524;11.468;2023-04-12T03:32:02;1.90;;;1.17;;
32639;SDS011;19049;52.524;11.468;2023-04-12T03:34:28;3.23;;;1.30;;
32639;SDS011;19049;52.524;11.468;2023-04-12T03:36:56;2.00;;;1.43;;
32639;SDS011;19049;52.524;11.468;2023-04-12T03:39:22;1.83;;;1.13;;
32639;SDS011;19049;52.524;11.468;2023-04-12T03:41:48;2.10;;;1.47;;
32639;SDS011;19049;52.524;11.468;2023-04-12T03:44:14;4.83;;;1.30;;
32639;SDS011;19049;52.524;11.468;2023-04-12T03:46:40;2.77;;;1.73;;
32639;SDS011;19049;52.524;11.468;2023-04-12T03:49:06;2.80;;;1.50;;
32639;SDS011;19049;52.524;11.468;2023-04-12T03:51:32;2.23;;;1.57;;
32639;SDS011;19049;52.524;11.468;2023-04-12T03:53:58;3.20;;;1.67;;
32639;SDS011;19049;52.524;11.468;2023-04-12T03:56:26;2.33;;;1.40;;
32639;SDS011;19049;52.524;11.468;2023-04-12T03:58:52;2.10;;;1.27;;
32639;SDS011;19049;52.524;11.468;2023-04-12T04:01:18;4.70;;;1.37;;
32639;SDS011;19049;52.524;11.468;2023-04-12T04:03:45;1.97;;;1.10;;
32639;SDS011;19049;52.524;11.468;2023-04-12T04:06:10;3.13;;;1.40;;
32639;SDS011;19049;52.524;11.468;2023-04-12T04:08:36;2.37;;;1.53;;
32639;SDS011;19049;52.524;11.468;2023-04-12T04:11:02;2.50;;;1.40;;
32639;SDS011;19049;52.524;11.468;2023-04-12T04:13:27;2.53;;;1.60;;
32639;SDS011;19049;52.524;11.468;2023-04-12T04:16:03;3.73;;;1.77;;
32639;SDS011;19049;52.524;11.468;2023-04-12T04:18:30;4.07;;;1.90;;
32639;SDS011;19049;52.524;11.468;2023-04-12T04:20:56;2.73;;;1.77;;
32639;SDS011;19049;52.524;11.468;2023-04-12T04:23:23;3.87;;;1.87;;
32639;SDS011;19049;52.524;11.468;2023-04-12T04:25:48;3.40;;;1.40;;
32639;SDS011;19049;52.524;11.468;2023-04-12T04:28:17;2.73;;;2.10;;
32639;SDS011;19049;52.524;11.468;2023-04-12T04:30:42;5.83;;;2.50;;
32639;SDS011;19049;52.524;11.468;2023-04-12T04:33:10;2.03;;;1.50;;
32639;SDS011;19049;52.524;11.468;2023-04-12T04:35:38;2.00;;;1.40;;
32639;SDS011;19049;52.524;11.468;2023-04-12T04:38:04;3.00;;;2.20;;
32639;SDS011;19049;52.524;11.468;2023-04-12T04:40:31;3.47;;;1.90;;
32639;SDS011;19049;52.524;11.468;2023-04-12T04:42:57;2.50;;;1.70;;
32639;SDS011;19049;52.524;11.468;2023-04-12T04:45:23;3.83;;;2.13;;
32639;SDS011;19049;52.524;11.468;2023-04-12T04:47:51;2.73;;;1.73;;
32639;SDS011;19049;52.524;11.468;2023-04-12T04:50:20;3.70;;;2.00;;
32639;SDS011;19049;52.524;11.468;2023-04-12T04:52:47;2.80;;;1.70;;
32639;SDS011;19049;52.524;11.468;2023-04-12T04:55:13;2.10;;;1.80;;
32639;SDS011;19049;52.524;11.468;2023-04-12T04:57:39;2.30;;;1.70;;
32639;SDS011;19049;52.524;11.468;2023-04-12T05:00:06;3.50;;;1.83;;
32639;SDS011;19049;52.524;11.468;2023-04-12T05:02:36;3.23;;;2.03;;
32639;SDS011;19049;52.524;11.468;2023-04-12T05:05:12;3.93;;;2.47;;
32639;SDS011;19049;52.524;11.468;2023-04-12T05:07:38;3.00;;;2.17;;
32639;SDS011;19049;52.524;11.468;2023-04-12T05:10:04;4.37;;;2.10;;
32639;SDS011;19049;52.524;11.468;2023-04-12T05:12:30;3.63;;;2.10;;
32639;SDS011;19049;52.524;11.468;2023-04-12T05:14:56;4.43;;;2.17;;
32639;SDS011;19049;52.524;11.468;2023-04-12T05:17:22;3.33;;;2.03;;
32639;SDS011;19049;52.524;11.468;2023-04-12T05:19:48;2.67;;;1.83;;
32639;SDS011;19049;52.524;11.468;2023-04-12T05:22:15;3.40;;;1.97;;
32639;SDS011;19049;52.524;11.468;2023-04-12T05:24:44;2.13;;;1.90;;
32639;SDS011;19049;52.524;11.468;2023-04-12T05:27:10;5.03;;;2.33;;
32639;SDS011;19049;52.524;11.468;2023-04-12T05:29:36;4.33;;;2.50;;
32639;SDS011;19049;52.524;11.468;2023-04-12T05:32:02;3.03;;;1.87;;
32639;SDS011;19049;52.524;11.468;2023-04-12T05:34:27;2.90;;;1.83;;
32639;SDS011;19049;52.524;11.468;2023-04-12T05:36:54;5.67;;;2.30;;
32639;SDS011;19049;52.524;11.468;2023-04-12T05:39:20;2.87;;;2.07;;
32639;SDS011;19049;52.524;11.468;2023-04-12T05:41:46;5.20;;;2.33;;
32639;SDS011;19049;52.524;11.468;2023-04-12T05:44:12;3.67;;;2.20;;
32639;SDS011;19049;52.524;11.468;2023-04-12T05:46:38;4.03;;;2.40;;
32639;SDS011;19049;52.524;11.468;2023-04-12T05:49:04;4.10;;;1.90;;
32639;SDS011;19049;52.524;11.468;2023-04-12T05:51:30;5.87;;;2.53;;
32639;SDS011;19049;52.524;11.468;2023-04-12T05:53:56;5.77;;;2.43;;
32639;SDS011;19049;52.524;11.468;2023-04-12T05:56:22;2.83;;;1.97;;
32639;SDS011;19049;52.524;11.468;2023-04-12T05:58:48;6.50;;;2.47;;
32639;SDS011;19049;52.524;11.468;2023-04-12T06:01:15;4.17;;;2.53;;
32639;SDS011;19049;52.524;11.468;2023-04-12T06:03:43;4.00;;;2.10;;
32639;SDS011;19049;52.524;11.468;2023-04-12T06:06:09;3.43;;;2.23;;
32639;SDS011;19049;52.524;11.468;2023-04-12T06:08:35;3.97;;;2.47;;
32639;SDS011;19049;52.524;11.468;2023-04-12T06:11:05;3.40;;;2.43;;
32639;SDS011;19049;52.524;11.468;2023-04-12T06:13:32;3.70;;;2.57;;
32639;SDS011;19049;52.524;11.468;2023-04-12T06:15:58;3.00;;;2.50;;
32639;SDS011;19049;52.524;11.468;2023-04-12T06:18:24;2.80;;;2.17;;
32639;SDS011;19049;52.524;11.468;2023-04-12T06:20:50;3.53;;;2.47;;
32639;SDS011;19049;52.524;11.468;2023-04-12T06:23:16;3.80;;;2.40;;
32639;SDS011;19049;52.524;11.468;2023-04-12T06:25:43;3.90;;;2.40;;
32639;SDS011;19049;52.524;11.468;2023-04-12T06:28:09;4.30;;;2.90;;
32639;SDS011;19049;52.524;11.468;2023-04-12T06:30:35;5.00;;;2.80;;
32639;SDS011;19049;52.524;11.468;2023-04-12T06:33:01;5.50;;;2.40;;
32639;SDS011;19049;52.524;11.468;2023-04-12T06:35:27;5.37;;;2.60;;
32639;SDS011;19049;52.524;11.468;2023-04-12T06:37:53;3.17;;;2.27;;
32639;SDS011;19049;52.524;11.468;2023-04-12T06:40:20;4.00;;;2.60;;
32639;SDS011;19049;52.524;11.468;2023-04-12T06:42:46;2.93;;;2.00;;
32639;SDS011;19049;52.524;11.468;2023-04-12T06:45:12;7.97;;;2.07;;
32639;SDS011;19049;52.524;11.468;2023-04-12T06:47:38;3.03;;;2.03;;
32639;SDS011;19049;52.524;11.468;2023-04-12T06:50:04;4.27;;;1.87;;
32639;SDS011;19049;52.524;11.468;2023-04-12T06:52:31;3.53;;;1.97;;
32639;SDS011;19049;52.524;11.468;2023-04-12T06:54:59;3.13;;;2.03;;
32639;SDS011;19049;52.524;11.468;2023-04-12T06:57:25;3.30;;;2.07;;
32639;SDS011;19049;52.524;11.468;2023-04-12T06:59:50;3.87;;;2.23;;
32639;SDS011;19049;52.524;11.468;2023-04-12T07:02:16;3.70;;;2.10;;
32639;SDS011;19049;52.524;11.468;2023-04-12T07:04:42;3.00;;;1.90;;
32639;SDS011;19049;52.524;11.468;2023-04-12T07:07:08;2.10;;;1.53;;
32639;SDS011;19049;52.524;11.468;2023-04-12T07:09:34;3.10;;;1.60;;
32639;SDS011;19049;52.524;11.468;2023-04-12T07:12:00;2.80;;;1.53;;
32639;SDS011;19049;52.524;11.468;2023-04-12T07:14:27;2.90;;;1.50;;
32639;SDS011;19049;52.524;11.468;2023-04-12T07:16:52;2.90;;;1.60;;
32639;SDS011;19049;52.524;11.468;2023-04-12T07:19:18;3.30;;;1.80;;
32639;SDS011;19049;52.524;11.468;2023-04-12T07:21:43;2.50;;;1.30;;
32639;SDS011;19049;52.524;11.468;2023-04-12T07:24:09;3.37;;;1.60;;
32639;SDS011;19049;52.524;11.468;2023-04-12T07:26:35;2.40;;;1.47;;
32639;SDS011;19049;52.524;11.468;2023-04-12T07:29:01;3.73;;;1.33;;
32639;SDS011;19049;52.524;11.468;2023-04-12T07:31:27;3.43;;;1.23;;
32639;SDS011;19049;52.524;11.468;2023-04-12T07:33:54;2.90;;;1.73;;
32639;SDS011;19049;52.524;11.468;2023-04-12T07:36:20;3.40;;;1.33;;
32639;SDS011;19049;52.524;11.468;2023-04-12T07:38:46;1.70;;;1.10;;
32639;SDS011;19049;52.524;11.468;2023-04-12T07:41:13;1.37;;;1.00;;
32639;SDS011;19049;52.524;11.468;2023-04-12T07:43:39;1.53;;;1.23;;
32639;SDS011;19049;52.524;11.468;2023-04-12T07:46:05;1.57;;;1.00;;
32639;SDS011;19049;52.524;11.468;2023-04-12T07:48:32;2.13;;;0.93;;
32639;SDS011;19049;52.524;11.468;2023-04-12T07:50:57;2.60;;;1.30;;
32639;SDS011;19049;52.524;11.468;2023-04-12T07:53:24;3.17;;;1.20;;
32639;SDS011;19049;52.524;11.468;2023-04-12T07:55:51;2.70;;;1.20;;
32639;SDS011;19049;52.524;11.468;2023-04-12T07:58:18;5.47;;;1.10;;
32639;SDS011;19049;52.524;11.468;2023-04-12T08:00:45;1.83;;;1.00;;
32639;SDS011;19049;52.524;11.468;2023-04-12T08:03:11;1.00;;;0.80;;
32639;SDS011;19049;52.524;11.468;2023-04-12T08:05:39;2.30;;;1.20;;
32639;SDS011;19049;52.524;11.468;2023-04-12T08:08:05;2.20;;;1.13;;
32639;SDS011;19049;52.524;11.468;2023-04-12T08:10:34;3.33;;;1.27;;
32639;SDS011;19049;52.524;11.468;2023-04-12T08:13:00;1.63;;;0.83;;
32639;SDS011;19049;52.524;11.468;2023-04-12T08:15:26;2.40;;;0.80;;
32639;SDS011;19049;52.524;11.468;2023-04-12T08:17:53;2.33;;;0.87;;
32639;SDS011;19049;52.524;11.468;2023-04-12T08:20:19;1.57;;;0.97;;
32639;SDS011;19049;52.524;11.468;2023-04-12T08:22:45;4.60;;;0.90;;
32639;SDS011;19049;52.524;11.468;2023-04-12T08:25:11;3.30;;;1.30;;
32639;SDS011;19049;52.524;11.468;2023-04-12T08:27:41;1.60;;;0.73;;
32639;SDS011;19049;52.524;11.468;2023-04-12T08:30:07;3.00;;;0.97;;
32639;SDS011;19049;52.524;11.468;2023-04-12T08:32:34;3.10;;;1.20;;
32639;SDS011;19049;52.524;11.468;2023-04-12T08:35:01;2.33;;;1.00;;
32639;SDS011;19049;52.524;11.468;2023-04-12T08:37:27;3.97;;;1.13;;
32639;SDS011;19049;52.524;11.468;2023-04-12T08:39:53;2.00;;;1.07;;
32639;SDS011;19049;52.524;11.468;2023-04-12T08:42:19;3.47;;;1.40;;
32639;SDS011;19049;52.524;11.468;2023-04-12T08:44:46;6.17;;;1.30;;
32639;SDS011;19049;52.524;11.468;2023-04-12T08:47:12;4.70;;;1.33;;
32639;SDS011;19049;52.524;11.468;2023-04-12T08:49:37;4.33;;;1.50;;
32639;SDS011;19049;52.524;11.468;2023-04-12T08:52:04;3.73;;;1.43;;
32639;SDS011;19049;52.524;11.468;2023-04-12T08:54:31;2.97;;;1.10;;
32639;SDS011;19049;52.524;11.468;2023-04-12T08:56:58;2.00;;;1.40;;
32639;SDS011;19049;52.524;11.468;2023-04-12T08:59:29;4.20;;;1.30;;
32639;SDS011;19049;52.524;11.468;2023-04-12T09:01:55;4.23;;;1.40;;
32639;SDS011;19049;52.524;11.468;2023-04-12T09:04:22;4.03;;;1.30;;
32639;SDS011;19049;52.524;11.468;2023-04-12T09:06:50;2.77;;;0.93;;
32639;SDS011;19049;52.524;11.468;2023-04-12T09:09:16;3.37;;;1.17;;
32639;SDS011;19049;52.524;11.468;2023-04-12T09:11:42;4.20;;;1.40;;
32639;SDS011;19049;52.524;11.468;2023-04-12T09:14:21;2.07;;;1.23;;
32639;SDS011;19049;52.524;11.468;2023-04-12T09:16:49;4.10;;;1.60;;
32639;SDS011;19049;52.524;11.468;2023-04-12T09:19:15;2.83;;;1.00;;
32639;SDS011;19049;52.524;11.468;2023-04-12T09:21:51;4.17;;;1.47;;
32639;SDS011;19049;52.524;11.468;2023-04-12T09:24:18;2.93;;;1.40;;
32639;SDS011;19049;52.524;11.468;2023-04-12T09:26:48;2.20;;;0.80;;
32639;SDS011;19049;52.524;11.468;2023-04-12T09:29:21;3.00;;;1.13;;
32639;SDS011;19049;52.524;11.468;2023-04-12T09:32:23;4.20;;;1.47;;
32639;SDS011;19049;52.524;11.468;2023-04-12T09:34:55;3.87;;;1.20;;
32639;SDS011;19049;52.524;11.468;2023-04-12T09:37:22;3.50;;;1.03;;
32639;SDS011;19049;52.524;11.468;2023-04-12T09:39:58;1.63;;;0.80;;
32639;SDS011;19049;52.524;11.468;2023-04-12T09:42:25;2.10;;;1.00;;
32639;SDS011;19049;52.524;11.468;2023-04-12T09:44:51;3.90;;;1.10;;
32639;SDS011;19049;52.524;11.468;2023-04-12T09:47:18;3.97;;;1.73;;
32639;SDS011;19049;52.524;11.468;2023-04-12T09:49:44;3.57;;;1.37;;
32639;SDS011;19049;52.524;11.468;2023-04-12T09:52:12;3.53;;;1.20;;
32639;SDS011;19049;52.524;11.468;2023-04-12T09:54:42;2.60;;;1.10;;
32639;SDS011;19049;52.524;11.468;2023-04-12T09:57:09;3.57;;;1.27;;
32639;SDS011;19049;52.524;11.468;2023-04-12T09:59:37;1.67;;;1.20;;
32639;SDS011;19049;52.524;11.468;2023-04-12T10:02:15;3.17;;;1.57;;
32639;SDS011;19049;52.524;11.468;2023-04-12T10:04:43;3.63;;;1.70;;
32639;SDS011;19049;52.524;11.468;2023-04-12T10:07:09;4.33;;;1.70;;
32639;SDS011;19049;52.524;11.468;2023-04-12T10:09:39;3.60;;;1.37;;
32639;SDS011;19049;52.524;11.468;2023-04-12T10:12:06;6.93;;;1.83;;
32639;SDS011;19049;52.524;11.468;2023-04-12T10:14:33;2.00;;;1.30;;
32639;SDS011;19049;52.524;11.468;2023-04-12T10:17:00;4.00;;;1.53;;
32639;SDS011;19049;52.524;11.468;2023-04-12T10:19:27;4.53;;;1.70;;
32639;SDS011;19049;52.524;11.468;2023-04-12T10:21:54;4.47;;;1.60;;
32639;SDS011;19049;52.524;11.468;2023-04-12T10:24:21;3.03;;;1.57;;
32639;SDS011;19049;52.524;11.468;2023-04-12T10:26:48;2.73;;;1.40;;
32639;SDS011;19049;52.524;11.468;2023-04-12T10:29:28;2.77;;;1.60;;
32639;SDS011;19049;52.524;11.468;2023-04-12T10:31:56;3.10;;;1.40;;
32639;SDS011;19049;52.524;11.468;2023-04-12T10:34:23;2.40;;;1.13;;
32639;SDS011;19049;52.524;11.468;2023-04-12T10:36:53;3.53;;;1.33;;
32639;SDS011;19049;52.524;11.468;2023-04-12T10:47:54;4.33;;;1.60;;
32639;SDS011;19049;52.524;11.468;2023-04-12T10:50:32;4.53;;;1.50;;
32639;SDS011;19049;52.524;11.468;2023-04-12T10:55:43;1.50;;;1.20;;
32639;SDS011;19049;52.524;11.468;2023-04-12T10:58:09;4.67;;;1.30;;
32639;SDS011;19049;52.524;11.468;2023-04-12T11:03:21;3.47;;;1.43;;
32639;SDS011;19049;52.524;11.468;2023-04-12T11:08:25;3.97;;;1.90;;
32639;SDS011;19049;52.524;11.468;2023-04-12T11:10:57;4.97;;;1.70;;
32639;SDS011;19049;52.524;11.468;2023-04-12T11:13:25;4.43;;;1.50;;
32639;SDS011;19049;52.524;11.468;2023-04-12T11:15:53;2.90;;;2.00;;
32639;SDS011;19049;52.524;11.468;2023-04-12T11:18:24;4.03;;;1.60;;
32639;SDS011;19049;52.524;11.468;2023-04-12T11:20:51;3.27;;;1.70;;
32639;SDS011;19049;52.524;11.468;2023-04-12T11:23:16;4.60;;;1.87;;
32639;SDS011;19049;52.524;11.468;2023-04-12T11:25:43;3.50;;;1.60;;
32639;SDS011;19049;52.524;11.468;2023-04-12T11:28:15;5.20;;;1.53;;
32639;SDS011;19049;52.524;11.468;2023-04-12T11:30:50;3.30;;;1.40;;
32639;SDS011;19049;52.524;11.468;2023-04-12T11:33:36;4.70;;;1.60;;
32639;SDS011;19049;52.524;11.468;2023-04-12T11:36:04;4.30;;;1.70;;
32639;SDS011;19049;52.524;11.468;2023-04-12T11:38:31;3.57;;;1.40;;
32639;SDS011;19049;52.524;11.468;2023-04-12T11:40:58;3.20;;;1.40;;
32639;SDS011;19049;52.524;11.468;2023-04-12T11:43:24;1.60;;;1.10;;
32639;SDS011;19049;52.524;11.468;2023-04-12T11:45:57;1.70;;;1.40;;
32639;SDS011;19049;52.524;11.468;2023-04-12T11:48:27;2.63;;;1.23;;
32639;SDS011;19049;52.524;11.468;2023-04-12T11:50:53;2.87;;;1.30;;
32639;SDS011;19049;52.524;11.468;2023-04-12T11:53:28;4.27;;;1.47;;
32639;SDS011;19049;52.524;11.468;2023-04-12T11:55:55;4.77;;;1.30;;
32639;SDS011;19049;52.524;11.468;2023-04-12T11:58:22;4.40;;;1.70;;
32639;SDS011;19049;52.524;11.468;2023-04-12T12:00:51;8.27;;;1.60;;
32639;SDS011;19049;52.524;11.468;2023-04-12T12:03:16;3.10;;;1.20;;
32639;SDS011;19049;52.524;11.468;2023-04-12T12:05:43;4.50;;;1.80;;
32639;SDS011;19049;52.524;11.468;2023-04-12T12:08:10;3.70;;;1.50;;
32639;SDS011;19049;52.524;11.468;2023-04-12T12:10:37;4.13;;;1.60;;
32639;SDS011;19049;52.524;11.468;2023-04-12T12:13:11;3.60;;;1.70;;
32639;SDS011;19049;52.524;11.468;2023-04-12T12:15:38;4.37;;;1.53;;
32639;SDS011;19049;52.524;11.468;2023-04-12T12:18:07;4.93;;;1.50;;
32639;SDS011;19049;52.524;11.468;2023-04-12T12:20:40;4.57;;;1.67;;
32639;SDS011;19049;52.524;11.468;2023-04-12T12:25:55;3.57;;;1.10;;
32639;SDS011;19049;52.524;11.468;2023-04-12T12:28:24;3.73;;;1.60;;
32639;SDS011;19049;52.524;11.468;2023-04-12T12:30:54;3.37;;;1.43;;
32639;SDS011;19049;52.524;11.468;2023-04-12T12:33:21;3.23;;;1.37;;
32639;SDS011;19049;52.524;11.468;2023-04-12T12:35:57;2.57;;;1.20;;
32639;SDS011;19049;52.524;11.468;2023-04-12T12:38:25;3.40;;;1.63;;
32639;SDS011;19049;52.524;11.468;2023-04-12T12:43:47;2.30;;;1.27;;
32639;SDS011;19049;52.524;11.468;2023-04-12T12:46:13;2.13;;;1.30;;
32639;SDS011;19049;52.524;11.468;2023-04-12T12:48:40;4.33;;;1.70;;
32639;SDS011;19049;52.524;11.468;2023-04-12T12:51:09;2.90;;;1.40;;
32639;SDS011;19049;52.524;11.468;2023-04-12T12:53:36;2.33;;;1.40;;
32639;SDS011;19049;52.524;11.468;2023-04-12T12:56:03;4.63;;;1.87;;
32639;SDS011;19049;52.524;11.468;2023-04-12T12:58:30;3.83;;;1.77;;
32639;SDS011;19049;52.524;11.468;2023-04-12T13:00:56;3.50;;;1.70;;
32639;SDS011;19049;52.524;11.468;2023-04-12T13:03:21;3.73;;;1.90;;
32639;SDS011;19049;52.524;11.468;2023-04-12T13:05:47;3.93;;;1.60;;
32639;SDS011;19049;52.524;11.468;2023-04-12T13:08:14;5.07;;;2.10;;
32639;SDS011;19049;52.524;11.468;2023-04-12T13:10:40;3.47;;;1.23;;
32639;SDS011;19049;52.524;11.468;2023-04-12T13:13:06;3.37;;;1.37;;
32639;SDS011;19049;52.524;11.468;2023-04-12T13:15:32;4.23;;;1.57;;
32639;SDS011;19049;52.524;11.468;2023-04-12T13:17:58;3.60;;;1.70;;
32639;SDS011;19049;52.524;11.468;2023-04-12T13:20:24;3.80;;;1.40;;
32639;SDS011;19049;52.524;11.468;2023-04-12T13:22:52;4.07;;;1.30;;
32639;SDS011;19049;52.524;11.468;2023-04-12T13:25:20;1.80;;;1.37;;
32639;SDS011;19049;52.524;11.468;2023-04-12T13:27:49;2.77;;;1.40;;
32639;SDS011;19049;52.524;11.468;2023-04-12T13:30:18;2.30;;;1.37;;
32639;SDS011;19049;52.524;11.468;2023-04-12T13:32:44;4.17;;;1.30;;
32639;SDS011;19049;52.524;11.468;2023-04-12T13:35:10;2.30;;;1.37;;
32639;SDS011;19049;52.524;11.468;2023-04-12T13:37:37;1.60;;;1.20;;
32639;SDS011;19049;52.524;11.468;2023-04-12T13:40:03;3.40;;;1.50;;
32639;SDS011;19049;52.524;11.468;2023-04-12T13:42:29;3.07;;;1.37;;
32639;SDS011;19049;52.524;11.468;2023-04-12T13:44:54;1.77;;;1.30;;
32639;SDS011;19049;52.524;11.468;2023-04-12T13:47:21;2.80;;;1.27;;
32639;SDS011;19049;52.524;11.468;2023-04-12T13:49:47;2.73;;;1.37;;
32639;SDS011;19049;52.524;11.468;2023-04-12T13:52:15;2.20;;;1.50;;
32639;SDS011;19049;52.524;11.468;2023-04-12T13:54:41;4.43;;;2.07;;
32639;SDS011;19049;52.524;11.468;2023-04-12T13:57:07;2.13;;;1.57;;
32639;SDS011;19049;52.524;11.468;2023-04-12T13:59:35;3.10;;;1.80;;
32639;SDS011;19049;52.524;11.468;2023-04-12T14:02:03;3.93;;;1.90;;
32639;SDS011;19049;52.524;11.468;2023-04-12T14:04:31;2.17;;;1.80;;
32639;SDS011;19049;52.524;11.468;2023-04-12T14:06:57;2.00;;;1.80;;
32639;SDS011;19049;52.524;11.468;2023-04-12T14:11:52;2.17;;;1.67;;
32639;SDS011;19049;52.524;11.468;2023-04-12T14:14:20;3.60;;;1.70;;
32639;SDS011;19049;52.524;11.468;2023-04-12T14:16:48;3.53;;;1.80;;
32639;SDS011;19049;52.524;11.468;2023-04-12T14:19:15;4.07;;;1.80;;
32639;SDS011;19049;52.524;11.468;2023-04-12T14:21:41;3.87;;;1.70;;
32639;SDS011;19049;52.524;11.468;2023-04-12T14:24:07;3.03;;;1.97;;
32639;SDS011;19049;52.524;11.468;2023-04-12T14:26:33;2.87;;;1.63;;
32639;SDS011;19049;52.524;11.468;2023-04-12T14:29:01;2.70;;;1.97;;
32639;SDS011;19049;52.524;11.468;2023-04-12T14:31:28;2.20;;;1.57;;
32639;SDS011;19049;52.524;11.468;2023-04-12T14:33:54;5.03;;;1.80;;
32639;SDS011;19049;52.524;11.468;2023-04-12T14:36:19;2.70;;;1.70;;
32639;SDS011;19049;52.524;11.468;2023-04-12T14:38:45;4.23;;;1.63;;
32639;SDS011;19049;52.524;11.468;2023-04-12T14:41:11;2.27;;;1.60;;
32639;SDS011;19049;52.524;11.468;2023-04-12T14:43:37;2.53;;;1.90;;
32639;SDS011;19049;52.524;11.468;2023-04-12T14:46:03;2.60;;;1.70;;
32639;SDS011;19049;52.524;11.468;2023-04-12T14:48:31;1.97;;;1.57;;
32639;SDS011;19049;52.524;11.468;2023-04-12T14:50:59;2.60;;;1.90;;
32639;SDS011;19049;52.524;11.468;2023-04-12T14:53:25;3.93;;;1.70;;
32639;SDS011;19049;52.524;11.468;2023-04-12T14:55:51;4.97;;;2.10;;
32639;SDS011;19049;52.524;11.468;2023-04-12T14:58:17;1.93;;;1.43;;
32639;SDS011;19049;52.524;11.468;2023-04-12T15:00:42;3.73;;;1.80;;
32639;SDS011;19049;52.524;11.468;2023-04-12T15:03:08;2.37;;;1.60;;
32639;SDS011;19049;52.524;11.468;2023-04-12T15:05:34;2.43;;;1.40;;
32639;SDS011;19049;52.524;11.468;2023-04-12T15:08:00;1.63;;;1.30;;
32639;SDS011;19049;52.524;11.468;2023-04-12T15:10:29;3.43;;;1.70;;
32639;SDS011;19049;52.524;11.468;2023-04-12T15:12:55;3.60;;;1.87;;